Time;durP1;ratioP1;P1;durP2;ratioP2;P2;SDS_P1;SDS_P2;PMS_P1;PMS_P2;Temp;Humidity;BMP_temperature;BMP_pressure;BME280_temperature;BME280_humidity;BME280_pressure;Samples;Min_cycle;Max_cycle;Signal;HPM_P1;HPM_P2
2023/10/21 00:01:05;;;;;;;26.40;16.98;;;;;;;9.46;100.00;98170.06;5000987;28;20097;-69
2023/10/21 00:03:31;;;;;;;24.90;16.77;;;;;;;9.45;100.00;98176.34;5003614;28;20563;-70
2023/10/21 00:05:56;;;;;;;26.42;18.23;;;;;;;9.49;100.00;98176.94;5004520;28;20109;-70
2023/10/21 00:08:21;;;;;;;28.73;18.25;;;;;;;9.43;100.00;98180.09;5001963;28;20639;-70
2023/10/21 00:10:47;;;;;;;25.60;17.02;;;;;;;9.40;100.00;98180.38;5002929;28;20366;-70
2023/10/21 00:13:12;;;;;;;25.48;16.88;;;;;;;9.45;100.00;98192.28;5004605;28;20078;-70
2023/10/21 00:15:39;;;;;;;26.38;17.10;;;;;;;9.42;100.00;98197.84;4990516;28;20021;-71
2023/10/21 00:18:05;;;;;;;27.30;17.33;;;;;;;9.39;100.00;98191.97;4999675;28;20236;-71
2023/10/21 00:20:30;;;;;;;26.48;17.52;;;;;;;9.43;100.00;98202.19;5005100;28;20168;-70
2023/10/21 00:22:55;;;;;;;24.08;16.48;;;;;;;9.40;100.00;98199.78;5004444;28;20126;-70
2023/10/21 00:25:21;;;;;;;22.63;15.13;;;;;;;9.40;100.00;98202.44;5005290;28;20018;-70
2023/10/21 00:27:46;;;;;;;30.38;16.60;;;;;;;9.44;100.00;98208.31;5004630;28;20547;-70
2023/10/21 00:30:13;;;;;;;29.20;17.13;;;;;;;9.43;100.00;98212.81;4985033;28;20052;-70
2023/10/21 00:32:38;;;;;;;25.33;17.25;;;;;;;9.45;100.00;98218.00;5002466;28;20190;-70
2023/10/21 00:35:05;;;;;;;21.67;15.60;;;;;;;9.46;100.00;98224.97;5004865;28;20038;-70
2023/10/21 00:37:30;;;;;;;22.10;15.77;;;;;;;9.53;100.00;98226.13;5004649;28;20030;-70
2023/10/21 00:39:55;;;;;;;22.27;16.00;;;;;;;9.58;100.00;98231.88;5003458;28;20033;-69
2023/10/21 00:42:21;;;;;;;23.48;16.50;;;;;;;9.65;100.00;98240.13;5003300;28;20034;-70
2023/10/21 00:44:46;;;;;;;22.85;16.23;;;;;;;9.69;100.00;98244.19;5010308;28;20236;-68
2023/10/21 00:47:11;;;;;;;24.58;16.20;;;;;;;9.72;100.00;98249.22;5000216;28;20661;-69
2023/10/21 00:49:37;;;;;;;26.80;16.88;;;;;;;9.63;100.00;98240.25;5002409;28;20372;-69
2023/10/21 00:52:07;;;;;;;25.25;15.95;;;;;;;9.68;100.00;98259.28;5001679;28;20468;-70
2023/10/21 00:54:33;;;;;;;25.38;15.82;;;;;;;9.63;100.00;98260.66;5001169;28;20034;-70
2023/10/21 00:56:58;;;;;;;24.20;16.05;;;;;;;9.61;100.00;98257.28;5002939;28;20029;-69
2023/10/21 00:59:24;;;;;;;23.80;15.20;;;;;;;9.60;100.00;98256.47;5001827;28;20943;-70
2023/10/21 01:01:50;;;;;;;26.90;16.17;;;;;;;9.60;100.00;98266.25;4999884;28;20044;-70
2023/10/21 01:04:16;;;;;;;24.40;15.50;;;;;;;9.54;100.00;98251.69;4980729;28;20124;-70
2023/10/21 01:06:43;;;;;;;22.73;16.20;;;;;;;9.60;100.00;98263.59;5001605;28;20373;-70
2023/10/21 01:09:10;;;;;;;28.13;16.98;;;;;;;9.62;100.00;98264.31;4983195;28;20132;-71
2023/10/21 01:11:36;;;;;;;25.13;17.65;;;;;;;9.58;100.00;98270.88;5001283;28;20112;-71
2023/10/21 01:14:03;;;;;;;25.92;18.00;;;;;;;9.60;100.00;98277.69;4975363;28;20030;-70
2023/10/21 01:16:28;;;;;;;24.73;17.58;;;;;;;9.59;100.00;98276.03;5002575;28;20120;-69
2023/10/21 01:18:53;;;;;;;25.85;17.45;;;;;;;9.52;100.00;98263.41;5000583;28;20037;-70
2023/10/21 01:21:19;;;;;;;28.95;18.67;;;;;;;9.59;100.00;98278.69;4992305;28;20429;-70
2023/10/21 01:23:44;;;;;;;27.77;19.23;;;;;;;9.60;100.00;98279.53;5000905;28;20040;-70
2023/10/21 01:26:09;;;;;;;23.85;18.73;;;;;;;9.62;100.00;98281.06;4982378;28;20030;-68
2023/10/21 01:28:35;;;;;;;32.03;20.33;;;;;;;9.65;100.00;98285.25;5001252;28;20018;-70
2023/10/21 01:31:02;;;;;;;28.45;19.23;;;;;;;9.67;100.00;98286.81;5003165;28;20021;-69
2023/10/21 01:33:27;;;;;;;28.42;19.25;;;;;;;9.60;100.00;98272.38;4998652;28;20053;-70
2023/10/21 01:35:52;;;;;;;29.48;19.27;;;;;;;9.66;100.00;98297.59;4998066;28;20556;-70
2023/10/21 01:38:19;;;;;;;27.92;19.95;;;;;;;9.68;100.00;98298.28;5001144;28;20176;-70
2023/10/21 01:40:45;;;;;;;34.15;20.67;;;;;;;9.67;100.00;98302.75;5001822;28;20025;-70
2023/10/21 01:43:10;;;;;;;31.98;20.13;;;;;;;9.67;100.00;98304.56;5001366;28;20029;-70
2023/10/21 01:45:36;;;;;;;27.58;19.60;;;;;;;9.68;100.00;98299.13;5000891;28;20033;-70
2023/10/21 01:48:03;;;;;;;25.73;19.40;;;;;;;9.61;100.00;98274.06;4997105;28;20057;-70
2023/10/21 01:50:28;;;;;;;31.15;20.15;;;;;;;9.73;100.00;98294.25;4998734;28;20026;-70
2023/10/21 01:52:58;;;;;;;30.17;20.10;;;;;;;9.73;100.00;98307.53;4999659;28;20490;-68
2023/10/21 01:55:23;;;;;;;28.95;20.20;;;;;;;9.72;100.00;98302.34;4991699;28;20072;-69
2023/10/21 01:57:49;;;;;;;25.48;19.40;;;;;;;9.76;100.00;98314.38;5000899;28;20414;-71
2023/10/21 02:00:22;;;;;;;30.45;19.52;;;;;;;9.77;100.00;98315.22;4999578;28;20037;-70
2023/10/21 02:02:52;;;;;;;29.40;19.25;;;;;;;9.85;100.00;98315.41;4998811;28;20084;-70
2023/10/21 02:05:18;;;;;;;31.15;20.40;;;;;;;9.88;100.00;98315.97;4999265;28;20034;-71
2023/10/21 02:07:44;;;;;;;33.53;20.25;;;;;;;9.89;100.00;98316.81;5000788;28;20166;-71
2023/10/21 02:10:09;;;;;;;30.70;19.80;;;;;;;9.89;100.00;98322.97;4976320;28;20032;-71
2023/10/21 02:12:38;;;;;;;30.95;20.13;;;;;;;9.93;100.00;98336.81;4997649;28;20061;-70
2023/10/21 02:15:05;;;;;;;28.52;19.42;;;;;;;9.97;100.00;98331.09;5004515;28;20026;-71
2023/10/21 02:17:30;;;;;;;27.95;19.30;;;;;;;9.98;100.00;98329.28;5007483;28;20044;-70
2023/10/21 02:19:56;;;;;;;30.50;19.55;;;;;;;9.97;100.00;98328.44;5001773;28;20026;-69
2023/10/21 02:22:26;;;;;;;27.45;19.05;;;;;;;10.01;100.00;98336.97;5004980;28;20034;-72
2023/10/21 02:24:53;;;;;;;26.02;18.60;;;;;;;10.02;100.00;98345.78;5009230;28;20340;-70
2023/10/21 02:27:19;;;;;;;28.55;18.80;;;;;;;10.03;100.00;98350.13;5009024;28;20067;-69
2023/10/21 02:29:44;;;;;;;28.88;18.60;;;;;;;9.98;100.00;98342.56;5009264;28;20431;-70
2023/10/21 02:32:09;;;;;;;29.50;19.95;;;;;;;10.06;100.00;98357.84;4988355;28;20052;-69
2023/10/21 02:34:35;;;;;;;29.13;20.02;;;;;;;10.01;100.00;98355.59;5007326;28;20064;-70
2023/10/21 02:37:00;;;;;;;29.02;19.80;;;;;;;10.01;100.00;98360.06;5008854;28;20112;-71
2023/10/21 02:39:25;;;;;;;31.75;19.02;;;;;;;10.04;100.00;98365.94;5007662;28;20030;-69
2023/10/21 02:41:51;;;;;;;29.63;19.80;;;;;;;10.07;100.00;98368.31;5007927;28;20053;-69
2023/10/21 02:44:16;;;;;;;31.83;19.80;;;;;;;10.10;100.00;98369.88;5005733;28;20053;-71
2023/10/21 02:46:41;;;;;;;29.25;19.65;;;;;;;10.10;100.00;98362.75;5001413;28;20046;-71
2023/10/21 02:49:07;;;;;;;24.25;17.80;;;;;;;10.08;100.00;98366.53;5008033;28;20033;-70
2023/10/21 02:51:32;;;;;;;25.90;18.30;;;;;;;10.07;100.00;98370.97;5005997;28;20038;-70
2023/10/21 02:53:58;;;;;;;28.45;18.50;;;;;;;10.05;100.00;98375.59;5006415;28;20030;-70
2023/10/21 02:56:23;;;;;;;25.42;18.13;;;;;;;10.01;100.00;98381.31;5006298;28;20446;-69
2023/10/21 02:58:48;;;;;;;24.00;17.75;;;;;;;10.01;100.00;98387.47;5007188;28;20083;-70
2023/10/21 03:01:19;;;;;;;25.83;17.67;;;;;;;9.94;100.00;98384.50;4996278;28;20111;-70
2023/10/21 03:03:46;;;;;;;25.75;17.83;;;;;;;9.92;100.00;98394.44;5006394;28;20049;-70
2023/10/21 03:06:13;;;;;;;27.55;16.70;;;;;;;9.84;100.00;98391.59;5003093;28;20029;-70
2023/10/21 03:08:39;;;;;;;25.00;18.02;;;;;;;9.90;100.00;98404.34;5004927;28;20477;-70
2023/10/21 03:11:06;;;;;;;25.45;17.65;;;;;;;9.88;100.00;98408.13;5008134;28;20171;-70
2023/10/21 03:13:33;;;;;;;27.02;16.90;;;;;;;9.90;100.00;98409.66;5004841;28;20073;-70
2023/10/21 03:15:59;;;;;;;23.05;16.58;;;;;;;9.92;100.00;98405.06;5003382;28;20052;-70
2023/10/21 03:18:25;;;;;;;26.67;17.63;;;;;;;9.96;100.00;98409.13;5007683;28;20429;-71
2023/10/21 03:20:52;;;;;;;24.17;16.48;;;;;;;9.97;100.00;98410.81;5001355;28;20030;-71
2023/10/21 03:23:18;;;;;;;23.50;16.27;;;;;;;10.03;100.00;98416.56;5002007;28;20038;-70
2023/10/21 03:25:43;;;;;;;23.55;16.38;;;;;;;10.08;100.00;98422.34;5003157;28;20084;-70
2023/10/21 03:28:09;;;;;;;21.27;16.88;;;;;;;10.12;100.00;98423.75;5005500;28;20062;-69
2023/10/21 03:30:37;;;;;;;20.13;16.23;;;;;;;10.11;100.00;98428.19;5003643;28;20014;-70
2023/10/21 03:33:03;;;;;;;22.75;15.57;;;;;;;10.00;100.00;98417.69;4988230;28;20026;-70
2023/10/21 03:35:28;;;;;;;21.88;15.50;;;;;;;10.07;100.00;98436.59;5000497;28;20041;-70
2023/10/21 03:37:53;;;;;;;19.90;15.05;;;;;;;9.98;100.00;98425.78;5004523;28;20402;-69
2023/10/21 03:40:18;;;;;;;20.08;14.68;;;;;;;10.03;100.00;98440.47;4998335;28;20022;-70
2023/10/21 03:42:44;;;;;;;21.58;15.10;;;;;;;9.99;100.00;98442.59;5005067;28;20507;-70
2023/10/21 03:45:09;;;;;;;21.95;15.48;;;;;;;9.96;100.00;98449.00;4996800;28;20073;-69
2023/10/21 03:47:35;;;;;;;23.00;14.95;;;;;;;9.94;100.00;98444.78;5003442;28;20096;-71
2023/10/21 03:50:01;;;;;;;21.85;15.57;;;;;;;9.96;100.00;98453.47;5003030;28;20430;-71
2023/10/21 03:52:26;;;;;;;19.38;14.75;;;;;;;9.94;100.00;98455.41;5005346;28;20358;-70
2023/10/21 03:54:51;;;;;;;18.95;13.85;;;;;;;9.88;100.00;98456.78;4996665;28;20575;-69
2023/10/21 03:57:17;;;;;;;21.02;14.70;;;;;;;9.92;100.00;98468.84;5004064;28;20021;-71
2023/10/21 03:59:42;;;;;;;20.92;14.15;;;;;;;9.92;100.00;98468.84;4992275;28;20340;-69
2023/10/21 04:02:08;;;;;;;22.30;13.77;;;;;;;9.89;100.00;98469.09;5001804;28;20346;-69
2023/10/21 04:04:33;;;;;;;20.23;14.30;;;;;;;9.95;100.00;98487.19;5002162;28;20448;-70
2023/10/21 04:06:59;;;;;;;19.45;14.52;;;;;;;9.97;100.00;98481.72;5001184;28;20458;-71
2023/10/21 04:09:25;;;;;;;20.40;13.65;;;;;;;10.05;100.00;98489.03;4998756;28;20430;-71
2023/10/21 04:11:51;;;;;;;21.75;14.40;;;;;;;10.10;100.00;98494.78;5000911;28;20025;-70
2023/10/21 04:14:16;;;;;;;18.45;13.68;;;;;;;10.18;100.00;98492.31;5003089;28;20104;-70
2023/10/21 04:16:44;;;;;;;20.27;14.80;;;;;;;10.12;100.00;98487.56;5003380;28;20393;-70
2023/10/21 04:19:10;;;;;;;19.83;14.10;;;;;;;10.16;100.00;98492.47;5003394;28;20046;-70
2023/10/21 04:21:36;;;;;;;18.00;13.55;;;;;;;10.16;100.00;98491.63;5002028;28;20026;-70
2023/10/21 04:24:01;;;;;;;23.83;13.38;;;;;;;10.19;100.00;98494.84;5017066;28;20485;-70
2023/10/21 04:26:27;;;;;;;19.48;12.70;;;;;;;10.25;100.00;98496.16;5003490;28;20418;-71
2023/10/21 04:28:53;;;;;;;19.73;13.05;;;;;;;10.25;100.00;98498.00;5000828;28;20060;-70
2023/10/21 04:31:18;;;;;;;21.30;13.02;;;;;;;10.26;100.00;98497.84;5000356;28;20021;-69
2023/10/21 04:33:45;;;;;;;18.67;12.70;;;;;;;10.20;100.00;98519.63;5001940;28;20026;-69
2023/10/21 04:36:10;;;;;;;18.27;12.40;;;;;;;10.22;100.00;98515.84;5000952;28;20025;-70
2023/10/21 04:38:36;;;;;;;18.60;12.48;;;;;;;10.21;100.00;98531.94;4999727;28;20043;-70
2023/10/21 04:41:02;;;;;;;18.90;12.73;;;;;;;10.17;100.00;98525.19;4986115;28;20029;-70
2023/10/21 04:43:28;;;;;;;19.80;13.38;;;;;;;10.11;100.00;98531.03;4995916;28;20021;-70
2023/10/21 04:45:53;;;;;;;17.90;12.55;;;;;;;10.10;100.00;98539.97;4998337;28;20037;-71
2023/10/21 04:48:19;;;;;;;18.02;12.52;;;;;;;10.06;100.00;98543.88;5001194;28;20054;-71
2023/10/21 04:50:44;;;;;;;18.38;12.95;;;;;;;10.01;100.00;98546.09;4999332;28;20358;-70
2023/10/21 04:53:09;;;;;;;25.13;13.70;;;;;;;10.00;100.00;98542.59;5002975;28;20423;-70
2023/10/21 04:55:35;;;;;;;18.98;12.68;;;;;;;9.94;100.00;98543.94;4999598;28;20432;-71
2023/10/21 04:58:00;;;;;;;18.77;13.70;;;;;;;9.93;100.00;98546.72;5001890;28;20033;-69
2023/10/21 05:00:25;;;;;;;20.35;13.25;;;;;;;9.92;100.00;98542.41;5002913;28;20034;-70
2023/10/21 05:02:51;;;;;;;19.23;13.25;;;;;;;9.86;100.00;98548.22;5002231;28;20017;-70
2023/10/21 05:05:16;;;;;;;22.08;13.18;;;;;;;9.80;100.00;98554.91;4999357;28;20468;-70
2023/10/21 05:07:42;;;;;;;21.00;12.18;;;;;;;9.76;100.00;98553.47;5001020;28;20028;-70
2023/10/21 05:10:08;;;;;;;23.33;13.15;;;;;;;9.75;100.00;98554.44;4997136;28;20040;-70
2023/10/21 05:12:33;;;;;;;20.40;12.90;;;;;;;9.83;100.00;98559.13;5002677;28;20028;-70
2023/10/21 05:15:00;;;;;;;22.80;13.82;;;;;;;9.85;100.00;98568.63;4994799;28;20030;-69
2023/10/21 05:17:25;;;;;;;20.52;13.60;;;;;;;9.94;100.00;98569.66;5000886;28;20403;-69
2023/10/21 05:19:50;;;;;;;24.40;13.82;;;;;;;10.02;100.00;98580.50;5001982;28;20263;-70
2023/10/21 05:22:15;;;;;;;22.98;14.05;;;;;;;9.88;100.00;98570.19;4998224;28;20030;-70
2023/10/21 05:24:41;;;;;;;21.27;13.32;;;;;;;9.84;100.00;98579.41;4996582;28;20025;-71
2023/10/21 05:27:06;;;;;;;18.85;12.85;;;;;;;9.75;100.00;98578.34;5000509;28;20119;-70
2023/10/21 05:29:32;;;;;;;19.00;12.20;;;;;;;9.83;100.00;98586.53;5002465;28;20032;-70
2023/10/21 05:31:57;;;;;;;19.52;13.27;;;;;;;9.82;100.00;98600.75;5002603;28;20091;-71
2023/10/21 05:34:23;;;;;;;20.27;12.88;;;;;;;9.89;100.00;98593.13;5000463;28;20116;-70
2023/10/21 05:36:48;;;;;;;20.63;13.23;;;;;;;9.90;100.00;98586.84;5001850;28;20076;-69
2023/10/21 05:39:13;;;;;;;21.00;14.02;;;;;;;10.09;100.00;98602.09;5001776;28;20511;-71
2023/10/21 05:41:41;;;;;;;19.13;12.95;;;;;;;10.13;100.00;98604.34;5002159;28;20033;-71
2023/10/21 05:44:08;;;;;;;17.05;13.07;;;;;;;10.20;100.00;98610.00;5001162;28;20101;-71
2023/10/21 05:46:33;;;;;;;22.63;13.43;;;;;;;10.23;100.00;98620.38;5002240;28;20072;-70
2023/10/21 05:48:59;;;;;;;19.30;13.35;;;;;;;10.26;100.00;98621.97;4991150;28;20026;-71
2023/10/21 05:51:24;;;;;;;24.40;13.80;;;;;;;10.21;100.00;98625.81;4998232;28;20029;-71
2023/10/21 05:53:51;;;;;;;21.08;12.98;;;;;;;10.30;100.00;98632.22;4998656;28;20026;-71
2023/10/21 05:56:17;;;;;;;22.27;14.25;;;;;;;10.27;100.00;98628.97;4994539;28;20461;-71
2023/10/21 05:58:42;;;;;;;18.92;13.63;;;;;;;10.28;100.00;98634.13;5002056;28;20017;-69
2023/10/21 06:01:08;;;;;;;18.63;12.90;;;;;;;10.37;100.00;98637.84;4998725;28;20126;-71
2023/10/21 06:03:37;;;;;;;21.70;13.55;;;;;;;10.46;100.00;98642.38;5000782;28;20251;-70
2023/10/21 06:06:03;;;;;;;20.33;14.00;;;;;;;10.39;100.00;98636.75;5001564;28;20037;-70
2023/10/21 06:08:29;;;;;;;22.75;13.75;;;;;;;10.44;100.00;98652.28;5001215;28;20237;-71
2023/10/21 06:10:55;;;;;;;24.67;14.00;;;;;;;10.42;100.00;98657.75;4996724;28;20061;-70
2023/10/21 06:13:20;;;;;;;20.00;12.90;;;;;;;10.44;100.00;98666.44;4999803;28;20136;-70
2023/10/21 06:15:47;;;;;;;22.50;13.25;;;;;;;10.47;100.00;98668.84;5002336;28;20029;-70
2023/10/21 06:18:13;;;;;;;20.63;12.85;;;;;;;10.50;100.00;98675.72;5003404;28;20400;-69
2023/10/21 06:20:38;;;;;;;20.17;12.40;;;;;;;10.56;100.00;98675.19;5002768;28;20034;-70
2023/10/21 06:23:05;;;;;;;19.80;12.57;;;;;;;10.60;100.00;98678.44;5003199;28;20037;-71
2023/10/21 06:25:31;;;;;;;20.77;12.65;;;;;;;10.61;100.00;98688.09;4985054;28;20025;-70
2023/10/21 06:27:58;;;;;;;18.48;12.35;;;;;;;10.63;100.00;98702.13;5004043;28;20148;-70
2023/10/21 06:30:23;;;;;;;17.88;11.73;;;;;;;10.73;100.00;98700.34;5001090;28;20022;-70
2023/10/21 06:32:48;;;;;;;19.38;12.10;;;;;;;10.75;100.00;98702.91;5002565;28;20037;-71
2023/10/21 06:35:14;;;;;;;17.88;11.57;;;;;;;10.77;100.00;98707.09;5000527;28;20192;-71
2023/10/21 06:37:39;;;;;;;19.40;11.70;;;;;;;10.82;100.00;98704.03;4997540;28;20041;-72
2023/10/21 06:40:06;;;;;;;19.88;11.73;;;;;;;10.83;100.00;98706.59;5002236;28;20414;-71
2023/10/21 06:42:32;;;;;;;15.40;11.02;;;;;;;10.88;100.00;98714.19;5001193;28;20044;-68
2023/10/21 06:44:58;;;;;;;16.25;10.73;;;;;;;10.94;100.00;98725.13;5001535;28;20052;-70
2023/10/21 06:47:24;;;;;;;17.67;10.80;;;;;;;11.00;100.00;98725.59;4998629;28;20523;-71
2023/10/21 06:49:49;;;;;;;13.10;10.30;;;;;;;11.02;100.00;98736.94;4995956;28;20053;-70
2023/10/21 06:52:17;;;;;;;12.75;9.38;;;;;;;11.04;100.00;98740.31;4994481;28;20153;-71
2023/10/21 06:54:43;;;;;;;14.13;9.35;;;;;;;11.06;100.00;98749.00;5000495;28;20033;-70
2023/10/21 06:57:08;;;;;;;12.73;9.68;;;;;;;11.07;100.00;98742.69;4995122;28;20033;-70
2023/10/21 06:59:36;;;;;;;11.98;8.63;;;;;;;11.12;100.00;98752.00;4991520;28;20050;-70
2023/10/21 07:02:02;;;;;;;10.40;8.18;;;;;;;11.09;100.00;98751.41;5003657;28;20080;-70
2023/10/21 07:04:27;;;;;;;12.60;8.68;;;;;;;11.15;100.00;98774.84;4997905;28;20041;-70
2023/10/21 07:06:52;;;;;;;14.05;8.27;;;;;;;11.10;100.00;98758.41;5002546;28;20077;-71
2023/10/21 07:09:18;;;;;;;10.73;6.38;;;;;;;11.14;100.00;98781.13;5004016;28;20122;-70
2023/10/21 07:11:43;;;;;;;7.20;6.40;;;;;;;11.09;100.00;98778.88;5004689;28;20130;-70
2023/10/21 07:14:09;;;;;;;5.93;5.20;;;;;;;11.10;100.00;98801.84;4998575;28;20045;-71
2023/10/21 07:16:38;;;;;;;5.03;4.30;;;;;;;11.05;100.00;98816.53;5004019;28;20026;-71
2023/10/21 07:19:04;;;;;;;4.03;3.58;;;;;;;10.96;100.00;98813.69;4996776;28;20030;-71
2023/10/21 07:21:30;;;;;;;6.78;4.28;;;;;;;10.92;100.00;98822.91;4985555;28;20456;-70
2023/10/21 07:23:55;;;;;;;3.47;3.17;;;;;;;10.87;100.00;98832.25;4983147;28;20051;-71
2023/10/21 07:26:21;;;;;;;7.25;3.55;;;;;;;10.87;100.00;98840.25;5005025;28;20033;-70
2023/10/21 07:28:46;;;;;;;3.80;2.97;;;;;;;10.83;100.00;98844.13;5005137;28;20061;-70
2023/10/21 07:31:12;;;;;;;4.15;3.33;;;;;;;10.82;100.00;98845.09;5004562;28;20139;-71
2023/10/21 07:33:37;;;;;;;3.65;2.80;;;;;;;10.78;100.00;98875.59;4998590;28;20030;-70
2023/10/21 07:36:04;;;;;;;3.03;2.60;;;;;;;10.77;100.00;98876.56;5002117;28;20212;-71
2023/10/21 07:38:30;;;;;;;3.72;2.88;;;;;;;10.70;100.00;98877.09;4982080;28;20053;-71
2023/10/21 07:40:56;;;;;;;2.40;2.10;;;;;;;10.72;100.00;98882.28;4979783;28;20068;-69
2023/10/21 07:43:21;;;;;;;3.05;2.70;;;;;;;10.74;100.00;98885.63;5003242;28;20550;-70
2023/10/21 07:45:47;;;;;;;3.58;2.65;;;;;;;10.78;100.00;98900.38;5003773;28;20065;-70
2023/10/21 07:48:12;;;;;;;3.10;2.80;;;;;;;10.82;100.00;98906.28;4998324;28;20568;-70
2023/10/21 07:50:38;;;;;;;3.97;2.95;;;;;;;10.89;100.00;98908.31;5001813;28;20026;-71
2023/10/21 07:53:07;;;;;;;3.50;2.85;;;;;;;10.91;100.00;98918.84;5011841;28;20095;-70
2023/10/21 07:55:33;;;;;;;4.20;2.50;;;;;;;10.75;100.00;98918.44;5006131;28;20480;-69
2023/10/21 07:57:58;;;;;;;4.05;2.53;;;;;;;10.79;100.00;98926.03;4998695;28;20041;-70
2023/10/21 08:00:23;;;;;;;2.53;2.20;;;;;;;10.85;100.00;98927.34;5001874;28;20213;-70
2023/10/21 08:02:49;;;;;;;5.10;2.53;;;;;;;10.87;100.00;98930.72;5002398;28;20410;-71
2023/10/21 08:05:15;;;;;;;2.70;2.20;;;;;;;10.84;100.00;98925.66;5000556;28;20095;-70
2023/10/21 08:07:41;;;;;;;2.72;1.98;;;;;;;10.92;100.00;98944.50;4998513;28;20088;-70
2023/10/21 08:10:07;;;;;;;3.58;2.17;;;;;;;11.02;100.00;98947.25;4999629;28;20026;-71
2023/10/21 08:12:33;;;;;;;3.35;2.17;;;;;;;11.05;100.00;98952.31;5003727;28;20107;-70
2023/10/21 08:15:04;;;;;;;2.95;1.95;;;;;;;11.01;100.00;98943.72;5003363;28;20018;-70
2023/10/21 08:17:30;;;;;;;2.28;1.70;;;;;;;10.96;100.00;98960.09;4984702;28;20026;-71
2023/10/21 08:19:56;;;;;;;3.67;1.63;;;;;;;10.80;100.00;98951.66;5002912;28;20029;-71
2023/10/21 08:22:21;;;;;;;1.98;1.60;;;;;;;10.72;100.00;98968.25;5003403;28;20480;-71
2023/10/21 08:24:47;;;;;;;3.75;1.67;;;;;;;10.61;100.00;98960.28;4998342;28;20052;-71
2023/10/21 08:27:12;;;;;;;3.60;1.60;;;;;;;10.56;100.00;98964.31;4998863;28;20030;-70
2023/10/21 08:29:38;;;;;;;2.85;1.70;;;;;;;10.51;100.00;98975.31;5002360;28;20199;-70
2023/10/21 08:32:03;;;;;;;2.40;1.60;;;;;;;10.51;100.00;98979.78;5002579;28;20057;-70
2023/10/21 08:34:29;;;;;;;3.58;1.40;;;;;;;10.52;100.00;98984.13;5002790;28;20040;-71
2023/10/21 08:36:54;;;;;;;2.42;1.40;;;;;;;10.60;100.00;98968.41;4999397;28;20038;-70
2023/10/21 08:39:20;;;;;;;2.55;1.63;;;;;;;10.79;100.00;98991.72;4997518;28;20058;-70
2023/10/21 08:41:49;;;;;;;2.95;1.50;;;;;;;10.88;100.00;99002.47;5000573;28;20080;-71
2023/10/21 08:44:16;;;;;;;2.45;1.35;;;;;;;10.99;100.00;99006.88;4998926;28;20476;-70
2023/10/21 08:46:42;;;;;;;2.22;1.70;;;;;;;11.13;100.00;99003.13;5001449;28;20272;-70
2023/10/21 08:49:10;;;;;;;3.08;1.30;;;;;;;11.21;100.00;99006.00;4999158;28;20030;-69
2023/10/21 08:51:37;;;;;;;3.05;1.52;;;;;;;11.20;100.00;99020.25;4996874;28;20049;-71
2023/10/21 08:54:04;;;;;;;2.30;1.33;;;;;;;11.22;100.00;99021.00;5001559;28;20034;-70
2023/10/21 08:56:38;;;;;;;3.47;1.75;;;;;;;11.25;100.00;99015.41;4996309;28;20034;-71
2023/10/21 08:59:03;;;;;;;3.25;1.40;;;;;;;11.30;100.00;99015.03;4995298;28;20503;-71
2023/10/21 09:01:29;;;;;;;3.13;1.42;;;;;;;11.32;100.00;99027.22;4993979;28;20113;-71
2023/10/21 09:03:56;;;;;;;3.47;1.77;;;;;;;11.46;100.00;99029.63;4997285;28;20030;-71
2023/10/21 09:06:21;;;;;;;3.85;1.40;;;;;;;11.62;100.00;99037.19;4995332;28;20361;-70
2023/10/21 09:08:48;;;;;;;3.92;1.67;;;;;;;11.74;100.00;99040.59;4999571;28;20187;-72
2023/10/21 09:11:19;;;;;;;2.70;1.40;;;;;;;11.67;100.00;99050.97;5001276;28;20191;-69
2023/10/21 09:13:45;;;;;;;3.13;1.20;;;;;;;11.56;100.00;99042.16;5003224;28;20045;-71
2023/10/21 09:16:19;;;;;;;4.35;1.85;;;;;;;11.64;100.00;99051.22;5002006;28;20087;-70
2023/10/21 09:19:00;;;;;;;2.25;1.55;;;;;;;11.83;100.00;99047.88;5002316;28;20621;-70
2023/10/21 09:21:38;;;;;;;4.93;1.75;;;;;;;12.06;100.00;99055.75;4998958;28;20053;-70
2023/10/21 09:24:06;;;;;;;3.08;1.20;;;;;;;11.98;100.00;99052.88;4995008;28;20117;-70
2023/10/21 09:26:41;;;;;;;2.20;1.20;;;;;;;12.00;100.00;99057.13;5001510;28;20037;-68
2023/10/21 09:29:12;;;;;;;2.35;1.50;;;;;;;12.07;100.00;99058.25;4999703;28;20044;-70
2023/10/21 09:31:43;;;;;;;2.72;1.23;;;;;;;12.19;100.00;99059.88;4999500;28;20025;-70
2023/10/21 09:34:09;;;;;;;2.80;1.20;;;;;;;12.26;100.00;99060.22;4999899;28;20594;-69
2023/10/21 09:36:41;;;;;;;3.75;1.50;;;;;;;12.28;100.00;99055.56;4997148;28;20029;-70
2023/10/21 09:39:06;;;;;;;6.15;1.42;;;;;;;12.35;100.00;99067.41;4996714;28;20452;-69
2023/10/21 09:41:31;;;;;;;2.90;1.38;;;;;;;12.30;100.00;99074.97;5002230;28;20014;-71
2023/10/21 09:44:02;;;;;;;2.63;1.67;;;;;;;12.40;100.00;99094.53;4998900;28;20036;-69
2023/10/21 09:46:30;;;;;;;3.58;1.30;;;;;;;12.58;100.00;99077.91;4995936;28;20117;-69
2023/10/21 09:49:00;;;;;;;5.28;1.77;;;;;;;12.64;100.00;99088.91;5002820;28;20040;-69
2023/10/21 09:51:30;;;;;;;3.67;1.50;;;;;;;12.76;100.00;99076.31;5002218;28;20404;-69
2023/10/21 09:54:00;;;;;;;3.65;1.70;;;;;;;12.91;100.00;99090.13;5001221;28;20544;-70
2023/10/21 09:56:26;;;;;;;3.42;1.20;;;;;;;12.94;100.00;99089.84;5001987;28;20026;-70
2023/10/21 09:58:54;;;;;;;3.30;1.38;;;;;;;12.94;100.00;99105.88;4999293;28;20034;-70
2023/10/21 10:01:23;;;;;;;4.47;1.40;;;;;;;12.94;100.00;99109.38;4994617;28;20527;-70
2023/10/21 10:03:55;;;;;;;4.95;1.80;;;;;;;12.90;100.00;99105.28;4999138;28;20033;-70
2023/10/21 10:06:21;;;;;;;1.65;1.20;;;;;;;12.89;100.00;99110.78;4998643;28;20025;-69
2023/10/21 10:08:47;;;;;;;7.00;1.92;;;;;;;13.05;100.00;99103.13;4991126;28;20030;-69
2023/10/21 10:11:15;;;;;;;8.32;1.83;;;;;;;13.16;100.00;99111.00;4996338;28;20176;-69
2023/10/21 10:13:48;;;;;;;3.22;1.40;;;;;;;13.13;100.00;99113.13;5001221;28;20025;-70
2023/10/21 10:16:23;;;;;;;3.17;1.20;;;;;;;13.22;100.00;99109.63;5001502;28;20030;-70
2023/10/21 10:18:55;;;;;;;3.58;1.52;;;;;;;13.42;100.00;99115.88;5002913;28;20099;-70
2023/10/21 10:21:21;;;;;;;3.78;1.30;;;;;;;13.76;100.00;99124.38;4995064;28;20030;-69
2023/10/21 10:23:52;;;;;;;4.70;1.40;;;;;;;13.80;100.00;99124.94;4982958;28;20407;-70
2023/10/21 10:26:36;;;;;;;5.78;1.42;;;;;;;13.69;100.00;99132.09;5000163;28;20037;-71
2023/10/21 10:29:25;;;;;;;6.47;1.67;;;;;;;13.61;100.00;99136.44;5001574;28;20026;-71
2023/10/21 10:32:14;;;;;;;4.30;1.70;;;;;;;13.60;100.00;99140.94;4999842;28;20037;-71
2023/10/21 10:34:58;;;;;;;3.40;1.25;;;;;;;13.60;100.00;99143.63;4998015;28;20030;-72
2023/10/21 10:37:29;;;;;;;4.70;1.25;;;;;;;13.75;100.00;99128.00;4998868;28;20084;-72
2023/10/21 10:39:54;;;;;;;4.40;1.30;;;;;;;13.69;100.00;99145.44;5003934;28;20033;-71
2023/10/21 10:42:19;;;;;;;3.03;1.30;;;;;;;13.60;100.00;99134.75;5005880;28;20030;-70
2023/10/21 10:44:46;;;;;;;4.85;1.40;;;;;;;13.56;100.00;99136.03;5006444;28;20038;-71
2023/10/21 10:47:12;;;;;;;5.40;1.55;;;;;;;13.77;100.00;99138.56;5006928;28;20512;-70
2023/10/21 10:49:58;;;;;;;4.70;1.35;;;;;;;14.37;100.00;99132.03;5006960;28;20046;-71
2023/10/21 10:52:35;;;;;;;6.50;1.80;;;;;;;14.70;97.87;99138.75;4994438;28;20025;-72
2023/10/21 10:55:02;;;;;;;3.90;1.52;;;;;;;15.25;93.95;99147.84;5005816;28;20032;-72
2023/10/21 10:57:28;;;;;;;5.75;1.58;;;;;;;15.02;94.22;99140.19;5006515;28;21049;-71
2023/10/21 10:59:54;;;;;;;5.45;1.63;;;;;;;15.32;93.21;99156.97;5006184;28;20040;-71
2023/10/21 11:02:19;;;;;;;4.82;1.50;;;;;;;15.36;90.51;99156.53;5004539;28;20026;-71
2023/10/21 11:04:49;;;;;;;4.82;1.70;;;;;;;15.11;90.28;99149.19;4983803;28;20468;-71
2023/10/21 11:07:15;;;;;;;3.58;1.52;;;;;;;14.74;87.83;99142.00;4998747;28;20113;-71
2023/10/21 11:09:40;;;;;;;3.45;1.65;;;;;;;14.41;93.09;99151.34;5003972;28;20055;-72
2023/10/21 11:12:06;;;;;;;3.85;1.60;;;;;;;14.62;90.92;99156.53;4999870;28;20551;-71
2023/10/21 11:14:31;;;;;;;4.85;1.55;;;;;;;15.01;89.67;99148.41;5004385;28;20048;-71
2023/10/21 11:16:57;;;;;;;3.92;1.50;;;;;;;15.26;89.34;99158.44;4997170;28;20030;-73